createdAt,value
2022-12-11T00:00:06.285Z,38.70
2022-12-11T00:02:32.783Z,35.40
2022-12-11T00:04:59.286Z,35.88
2022-12-11T00:07:25.814Z,39.40
2022-12-11T00:09:52.417Z,38.05
2022-12-11T00:12:18.930Z,35.42
2022-12-11T00:14:45.389Z,40.35
2022-12-11T00:17:11.977Z,34.42
2022-12-11T00:19:38.463Z,37.92
2022-12-11T00:22:04.953Z,35.72
2022-12-11T00:24:31.554Z,40.58
2022-12-11T00:26:59.030Z,34.97
2022-12-11T00:29:25.511Z,41.42
2022-12-11T00:31:52.049Z,36.38
2022-12-11T00:34:18.559Z,36.10
2022-12-11T00:36:45.101Z,34.88
2022-12-11T00:39:11.614Z,43.60
2022-12-11T00:41:38.120Z,38.88
2022-12-11T00:44:04.854Z,31.95
2022-12-11T00:46:32.470Z,32.20
2022-12-11T00:48:58.952Z,34.53
2022-12-11T00:51:25.593Z,40.75
2022-12-11T00:53:52.384Z,37.85
2022-12-11T00:56:21.226Z,38.08
2022-12-11T00:58:49.099Z,32.28
2022-12-11T01:01:21.729Z,33.60
2022-12-11T01:03:48.676Z,36.25
2022-12-11T01:06:22.300Z,39.60
2022-12-11T01:08:49.442Z,37.33
2022-12-11T01:11:16.829Z,33.15
2022-12-11T01:13:43.428Z,42.33
2022-12-11T01:16:13.303Z,39.72
2022-12-11T01:18:40.258Z,33.28
2022-12-11T01:21:08.663Z,40.28
2022-12-11T01:23:35.230Z,35.80
2022-12-11T01:26:10.305Z,40.72
2022-12-11T01:28:36.963Z,34.03
2022-12-11T01:31:08.210Z,33.53
2022-12-11T01:33:34.795Z,40.33
2022-12-11T01:36:01.267Z,34.58
2022-12-11T01:38:27.794Z,36.72
2022-12-11T01:40:54.261Z,34.72
2022-12-11T01:43:20.826Z,37.20
2022-12-11T01:45:48.741Z,36.25
2022-12-11T01:48:23.538Z,31.58
2022-12-11T01:50:53.599Z,30.13
2022-12-11T01:53:25.191Z,27.50
2022-12-11T01:55:54.849Z,29.15
2022-12-11T01:58:25.869Z,35.45
2022-12-11T02:00:53.224Z,34.15
2022-12-11T02:03:19.785Z,29.02
2022-12-11T02:05:46.364Z,33.72
2022-12-11T02:08:12.921Z,32.42
2022-12-11T02:11:20.815Z,28.52
2022-12-11T02:14:17.169Z,28.80
2022-12-11T02:16:51.940Z,30.08
2022-12-11T02:19:45.213Z,43.25
2022-12-11T02:22:19.253Z,30.60
2022-12-11T02:25:18.081Z,34.40
2022-12-11T02:27:52.325Z,33.10
2022-12-11T02:30:19.096Z,33.17
2022-12-11T02:32:47.905Z,34.47
2022-12-11T02:35:19.116Z,32.05
2022-12-11T02:37:47.957Z,35.72
2022-12-11T02:40:19.209Z,32.17
2022-12-11T02:42:48.703Z,22.33
2022-12-11T02:45:16.968Z,34.10
2022-12-11T02:47:47.107Z,38.75
2022-12-11T02:50:17.250Z,36.42
2022-12-11T02:52:46.091Z,31.67
2022-12-11T02:55:15.393Z,32.78
2022-12-11T02:57:52.791Z,32.17
2022-12-11T03:00:19.665Z,33.65
2022-12-11T03:02:46.433Z,46.05
2022-12-11T03:05:14.328Z,56.70
2022-12-11T03:07:43.348Z,57.05
2022-12-11T03:10:12.148Z,53.13
2022-12-11T03:12:41.910Z,51.15
2022-12-11T03:15:13.190Z,44.90
2022-12-11T03:17:47.066Z,47.75
2022-12-11T03:20:22.752Z,41.20
2022-12-11T03:23:20.023Z,39.47
2022-12-11T03:25:56.144Z,36.15
2022-12-11T03:28:31.801Z,40.83
2022-12-11T03:31:05.597Z,34.05
2022-12-11T03:33:42.631Z,34.17
2022-12-11T03:36:18.838Z,33.67
2022-12-11T03:38:57.570Z,34.63
2022-12-11T03:41:27.408Z,34.05
2022-12-11T03:43:57.041Z,34.95
2022-12-11T03:46:29.943Z,35.95
2022-12-11T03:49:01.491Z,35.05
2022-12-11T03:51:30.966Z,32.05
2022-12-11T03:53:58.395Z,34.17
2022-12-11T03:56:28.515Z,36.70
2022-12-11T03:58:55.074Z,36.55
2022-12-11T04:01:21.582Z,34.88
2022-12-11T04:03:48.159Z,40.95
2022-12-11T04:06:14.626Z,41.60
2022-12-11T04:08:41.120Z,36.25
2022-12-11T04:11:07.619Z,35.97
2022-12-11T04:13:34.157Z,33.60
2022-12-11T04:16:00.711Z,34.95
2022-12-11T04:18:27.250Z,33.15
2022-12-11T04:20:55.270Z,35.03
2022-12-11T04:23:21.810Z,34.03
2022-12-11T04:25:48.281Z,35.10
2022-12-11T04:28:14.857Z,34.45
2022-12-11T04:30:41.531Z,39.22
2022-12-11T04:33:08.135Z,31.73
2022-12-11T04:35:34.601Z,28.30
2022-12-11T04:38:01.121Z,29.95
2022-12-11T04:40:27.638Z,34.80
2022-12-11T04:42:54.108Z,31.05
2022-12-11T04:45:20.631Z,32.72
2022-12-11T04:47:47.115Z,34.50
2022-12-11T04:50:15.231Z,31.90
2022-12-11T04:52:42.585Z,30.55
2022-12-11T04:55:11.108Z,33.72
2022-12-11T04:57:38.231Z,30.65
2022-12-11T05:00:07.691Z,36.55
2022-12-11T05:02:35.851Z,35.10
2022-12-11T05:05:04.278Z,34.08
2022-12-11T05:07:30.826Z,29.55
2022-12-11T05:09:57.408Z,29.83
2022-12-11T05:12:23.924Z,31.17
2022-12-11T05:14:54.482Z,31.60
2022-12-11T05:17:22.374Z,32.20
2022-12-11T05:19:49.918Z,33.38
2022-12-11T05:22:17.601Z,30.10
2022-12-11T05:24:45.256Z,33.03
2022-12-11T05:27:12.253Z,28.25
2022-12-11T05:29:38.736Z,34.78
2022-12-11T05:32:05.451Z,35.17
2022-12-11T05:34:31.980Z,29.55
2022-12-11T05:36:58.514Z,30.15
2022-12-11T05:39:24.957Z,34.63
2022-12-11T05:41:51.441Z,31.95
2022-12-11T05:44:17.928Z,32.95
2022-12-11T05:46:44.480Z,27.88
2022-12-11T05:49:11.066Z,32.00
2022-12-11T05:51:37.598Z,34.03
2022-12-11T05:54:04.267Z,28.40
2022-12-11T05:56:33.379Z,33.22
2022-12-11T05:59:02.019Z,32.85
2022-12-11T06:01:31.679Z,32.22
2022-12-11T06:03:58.934Z,29.25
2022-12-11T06:06:26.402Z,33.33
2022-12-11T06:08:54.521Z,28.83
2022-12-11T06:11:24.083Z,30.30
2022-12-11T06:13:51.513Z,31.65
2022-12-11T06:16:18.131Z,29.17
2022-12-11T06:18:45.642Z,33.90
2022-12-11T06:21:19.516Z,28.52
2022-12-11T06:23:47.984Z,27.90
2022-12-11T06:26:15.346Z,31.35
2022-12-11T06:28:41.903Z,29.73
2022-12-11T06:31:08.521Z,33.70
2022-12-11T06:33:35.838Z,32.20
2022-12-11T06:36:07.654Z,30.88
2022-12-11T06:38:34.302Z,33.50
2022-12-11T06:41:02.682Z,28.88
2022-12-11T06:43:29.152Z,31.35
2022-12-11T06:46:00.607Z,32.75
2022-12-11T06:48:30.031Z,34.83
2022-12-11T06:50:56.564Z,32.33
2022-12-11T06:53:23.113Z,60.72
2022-12-11T06:55:49.582Z,66.32
2022-12-11T06:58:16.178Z,98.88
2022-12-11T07:00:42.713Z,72.93
2022-12-11T07:03:10.089Z,65.47
2022-12-11T07:05:36.608Z,75.75
2022-12-11T07:08:03.188Z,93.03
2022-12-11T07:10:29.738Z,152.40
2022-12-11T07:12:56.318Z,137.48
2022-12-11T07:15:22.844Z,113.18
2022-12-11T07:17:49.412Z,145.73
2022-12-11T07:20:16.046Z,97.45
2022-12-11T07:22:46.421Z,102.18
2022-12-11T07:25:13.933Z,77.20
2022-12-11T07:27:41.352Z,79.55
2022-12-11T07:30:09.065Z,88.35
2022-12-11T07:32:35.631Z,89.20
2022-12-11T07:35:02.365Z,67.28
2022-12-11T07:37:28.895Z,68.03
2022-12-11T07:39:55.379Z,61.83
2022-12-11T07:42:21.859Z,71.43
2022-12-11T07:44:48.350Z,62.58
2022-12-11T07:47:14.905Z,66.18
2022-12-11T07:49:41.381Z,72.85
2022-12-11T07:52:07.874Z,52.28
2022-12-11T07:54:34.368Z,59.92
2022-12-11T07:57:01.627Z,57.35
2022-12-11T07:59:28.107Z,57.75
2022-12-11T08:01:54.653Z,60.30
2022-12-11T08:04:21.114Z,77.10
2022-12-11T08:06:47.599Z,84.53
2022-12-11T08:09:20.675Z,85.00
2022-12-11T08:11:49.736Z,96.68
2022-12-11T08:14:16.372Z,75.22
2022-12-11T08:16:42.938Z,217.15
2022-12-11T08:19:11.610Z,109.50
2022-12-11T08:21:38.301Z,177.85
2022-12-11T08:24:04.909Z,134.23
2022-12-11T08:26:31.701Z,137.50
2022-12-11T08:28:58.863Z,205.93
2022-12-11T08:31:26.214Z,213.23
2022-12-11T08:33:53.174Z,133.85
2022-12-11T08:36:21.617Z,140.05
2022-12-11T08:38:49.700Z,153.70
2022-12-11T08:41:21.984Z,153.90
2022-12-11T08:43:49.224Z,164.45
2022-12-11T08:46:15.771Z,233.98
2022-12-11T08:48:43.446Z,160.65
2022-12-11T08:51:15.837Z,180.30
2022-12-11T08:53:43.033Z,199.27
2022-12-11T08:56:15.359Z,181.48
2022-12-11T08:58:42.645Z,203.27
2022-12-11T09:01:14.556Z,145.73
2022-12-11T09:03:41.285Z,205.43
2022-12-11T09:06:10.851Z,181.23
2022-12-11T09:08:37.666Z,179.15
2022-12-11T09:11:13.613Z,184.73
2022-12-11T09:13:41.343Z,247.43
2022-12-11T09:16:10.807Z,203.38
2022-12-11T09:18:38.970Z,178.55
2022-12-11T09:21:08.816Z,70.90
2022-12-11T09:23:35.625Z,221.32
2022-12-11T09:26:09.850Z,323.08
2022-12-11T09:28:39.032Z,252.45
2022-12-11T09:31:18.225Z,150.15
2022-12-11T09:33:45.535Z,268.48
2022-12-11T09:36:12.199Z,139.15
2022-12-11T09:38:39.455Z,134.60
2022-12-11T09:41:21.142Z,234.40
2022-12-11T09:44:12.399Z,235.57
2022-12-11T09:46:40.724Z,87.93
2022-12-11T09:49:26.215Z,152.48
2022-12-11T09:52:20.158Z,159.30
2022-12-11T09:54:55.781Z,148.80
2022-12-11T09:57:43.828Z,124.75
2022-12-11T10:00:19.864Z,106.50
2022-12-11T10:03:19.666Z,139.48
2022-12-11T10:06:17.995Z,130.10
2022-12-11T10:09:11.392Z,88.53
2022-12-11T10:11:56.928Z,77.47
2022-12-11T10:14:39.254Z,133.05
2022-12-11T10:17:30.827Z,79.88
2022-12-11T10:20:05.679Z,145.50
2022-12-11T10:22:33.679Z,101.45
2022-12-11T10:25:10.726Z,133.50
2022-12-11T10:27:40.662Z,82.47
2022-12-11T10:30:25.396Z,136.65
2022-12-11T10:33:20.726Z,124.22
2022-12-11T10:35:56.245Z,126.50
2022-12-11T10:38:35.031Z,147.50
2022-12-11T10:41:02.988Z,240.20
2022-12-11T10:43:39.734Z,123.90
2022-12-11T10:46:14.292Z,82.03
2022-12-11T10:48:53.102Z,88.68
2022-12-11T10:51:22.175Z,105.18
2022-12-11T10:53:54.930Z,141.50
2022-12-11T10:56:30.465Z,133.18
2022-12-11T10:58:58.214Z,183.15
2022-12-11T11:01:27.879Z,115.15
2022-12-11T11:04:26.994Z,108.10
2022-12-11T11:07:13.991Z,140.93
2022-12-11T11:09:41.307Z,142.80
2022-12-11T11:12:23.499Z,79.35
2022-12-11T11:15:18.620Z,95.80
2022-12-11T11:17:55.885Z,176.90
2022-12-11T11:20:26.694Z,138.27
2022-12-11T11:22:59.503Z,71.88
2022-12-11T11:25:28.567Z,64.35
2022-12-11T11:27:58.509Z,171.07
2022-12-11T11:30:28.408Z,97.55
2022-12-11T11:32:57.994Z,131.63
2022-12-11T11:35:27.488Z,106.97
2022-12-11T11:38:17.832Z,60.47
2022-12-11T11:41:15.453Z,111.75
2022-12-11T11:43:48.743Z,121.53
2022-12-11T11:46:24.352Z,84.10
2022-12-11T11:49:04.097Z,123.53
2022-12-11T11:51:36.197Z,111.97
2022-12-11T11:54:25.225Z,83.80
2022-12-11T11:56:55.805Z,97.72
2022-12-11T11:59:31.982Z,129.55
2022-12-11T12:01:58.835Z,74.90
2022-12-11T12:04:31.580Z,82.03
2022-12-11T12:07:21.405Z,64.55
2022-12-11T12:09:53.868Z,70.10
2022-12-11T12:12:38.341Z,76.85
2022-12-11T12:15:33.060Z,65.68
2022-12-11T12:18:27.869Z,74.10
2022-12-11T12:21:17.070Z,55.70
2022-12-11T12:24:08.299Z,55.80
2022-12-11T12:26:44.442Z,53.55
2022-12-11T12:29:25.720Z,56.92
2022-12-11T12:32:21.433Z,55.17
2022-12-11T12:35:17.168Z,56.55
2022-12-11T12:37:52.792Z,47.60
2022-12-11T12:40:31.448Z,42.72
2022-12-11T12:43:35.270Z,48.95
2022-12-11T12:46:17.063Z,39.30
2022-12-11T12:48:45.075Z,41.08
2022-12-11T12:51:16.032Z,41.47
2022-12-11T12:53:54.379Z,43.15
2022-12-11T12:56:22.233Z,40.53
2022-12-11T12:58:48.716Z,43.92
2022-12-11T13:01:27.417Z,44.35
2022-12-11T13:04:02.074Z,42.40
2022-12-11T13:06:34.527Z,39.90
2022-12-11T13:09:22.713Z,57.80
2022-12-11T13:11:51.560Z,44.80
2022-12-11T13:14:17.991Z,51.60
2022-12-11T13:16:47.386Z,57.13
2022-12-11T13:19:22.977Z,53.58
2022-12-11T13:21:58.288Z,58.83
2022-12-11T13:24:28.085Z,49.47
2022-12-11T13:26:55.162Z,60.70
2022-12-11T13:29:37.082Z,44.47
2022-12-11T13:34:41.582Z,49.85
2022-12-11T13:37:26.566Z,50.35
2022-12-11T13:39:53.492Z,49.33
2022-12-11T13:42:38.742Z,46.95
2022-12-11T13:45:05.559Z,48.88
2022-12-11T13:47:32.944Z,72.32
2022-12-11T13:50:14.529Z,42.42
2022-12-11T13:52:41.052Z,77.80
2022-12-11T13:55:21.750Z,48.45
2022-12-11T13:57:48.266Z,43.75
2022-12-11T14:00:25.087Z,47.03
2022-12-11T14:02:54.813Z,53.17
2022-12-11T14:05:22.204Z,83.43
2022-12-11T14:07:53.551Z,61.55
2022-12-11T14:10:20.084Z,157.23
2022-12-11T14:12:52.968Z,57.60
2022-12-11T14:15:19.727Z,57.20
2022-12-11T14:17:51.514Z,89.95
2022-12-11T14:20:22.476Z,53.33
2022-12-11T14:22:48.981Z,53.55
2022-12-11T14:25:27.027Z,59.83
2022-12-11T14:27:56.211Z,64.07
2022-12-11T14:30:26.302Z,103.18
2022-12-11T14:33:04.467Z,48.72
2022-12-11T14:35:39.484Z,53.72
2022-12-11T14:38:28.530Z,43.97
2022-12-11T14:41:01.755Z,84.75
2022-12-11T14:43:40.904Z,79.03
2022-12-11T14:46:16.687Z,61.28
2022-12-11T14:49:01.113Z,64.15
2022-12-11T14:51:34.110Z,59.50
2022-12-11T14:54:02.932Z,51.92
2022-12-11T14:56:30.214Z,54.72
2022-12-11T14:59:03.760Z,58.50
2022-12-11T15:01:35.888Z,66.20
2022-12-11T15:04:26.701Z,50.72
2022-12-11T15:06:53.250Z,62.20
2022-12-11T15:09:37.231Z,80.75
2022-12-11T15:12:13.978Z,85.70
2022-12-11T15:14:49.006Z,103.35
2022-12-11T15:17:16.021Z,59.72
2022-12-11T15:19:48.600Z,54.97
2022-12-11T15:22:17.100Z,56.10
2022-12-11T15:24:45.288Z,61.45
2022-12-11T15:27:35.316Z,61.70
2022-12-11T15:30:03.070Z,65.57
2022-12-11T15:32:30.019Z,69.85
2022-12-11T15:34:59.028Z,90.68
2022-12-11T15:37:31.502Z,63.33
2022-12-11T15:40:00.476Z,69.60
2022-12-11T15:42:36.566Z,83.93
2022-12-11T15:45:06.604Z,78.88
2022-12-11T15:47:33.382Z,71.68
2022-12-11T15:50:03.028Z,76.65
2022-12-11T15:52:29.603Z,89.22
2022-12-11T15:54:56.046Z,71.30
2022-12-11T15:57:24.514Z,102.93
2022-12-11T15:59:53.953Z,73.45
2022-12-11T16:02:20.657Z,100.18
2022-12-11T16:04:47.118Z,83.53
2022-12-11T16:07:18.388Z,97.22
2022-12-11T16:09:46.186Z,120.30
2022-12-11T16:12:12.824Z,119.53
2022-12-11T16:14:40.337Z,80.70
2022-12-11T16:17:08.324Z,79.10
2022-12-11T16:19:35.662Z,105.82
2022-12-11T16:22:02.403Z,80.82
2022-12-11T16:24:29.529Z,81.30
2022-12-11T16:26:56.062Z,103.38
2022-12-11T16:29:22.654Z,79.50
2022-12-11T16:31:49.172Z,90.15
2022-12-11T16:34:15.976Z,89.60
2022-12-11T16:36:42.511Z,90.95
2022-12-11T16:39:11.762Z,91.85
2022-12-11T16:41:38.744Z,102.38
2022-12-11T16:44:06.021Z,83.00
2022-12-11T16:46:32.535Z,92.00
2022-12-11T16:48:59.001Z,87.53
2022-12-11T16:51:25.494Z,109.88
2022-12-11T16:53:52.094Z,82.95
2022-12-11T16:56:18.670Z,82.07
2022-12-11T16:58:45.289Z,82.95
2022-12-11T17:01:14.014Z,85.13
2022-12-11T17:03:42.328Z,83.88
2022-12-11T17:06:11.546Z,86.00
2022-12-11T17:08:38.454Z,85.63
2022-12-11T17:11:06.458Z,86.28
2022-12-11T17:13:36.094Z,94.57
2022-12-11T17:16:11.379Z,95.32
2022-12-11T17:18:38.453Z,94.10
2022-12-11T17:21:17.644Z,82.53
2022-12-11T17:23:44.735Z,75.10
2022-12-11T17:26:11.309Z,76.25
2022-12-11T17:28:39.098Z,69.88
2022-12-11T17:31:08.153Z,71.88
2022-12-11T17:33:35.337Z,81.85
2022-12-11T17:36:03.680Z,76.75
2022-12-11T17:38:30.439Z,98.25
2022-12-11T17:40:57.078Z,87.43
2022-12-11T17:43:23.954Z,88.22
2022-12-11T17:45:51.929Z,75.53
2022-12-11T17:48:20.246Z,84.80
2022-12-11T17:50:47.265Z,72.85
2022-12-11T17:53:15.427Z,70.18
2022-12-11T17:55:43.269Z,74.97
2022-12-11T17:58:15.574Z,62.97
2022-12-11T18:00:44.451Z,74.57
2022-12-11T18:03:11.674Z,69.93
2022-12-11T18:05:46.509Z,80.82
2022-12-11T18:08:15.092Z,70.50
2022-12-11T18:10:41.989Z,86.38
2022-12-11T18:13:09.114Z,75.38
2022-12-11T18:15:36.011Z,77.88
2022-12-11T18:18:02.621Z,66.25
2022-12-11T18:20:31.662Z,65.03
2022-12-11T18:22:58.654Z,66.75
2022-12-11T18:25:25.475Z,92.72
2022-12-11T18:27:52.201Z,76.93
2022-12-11T18:30:18.729Z,70.60
2022-12-11T18:32:45.226Z,59.80
2022-12-11T18:35:12.197Z,60.10
2022-12-11T18:37:38.930Z,61.47
2022-12-11T18:40:06.105Z,63.35
2022-12-11T18:42:33.585Z,61.90
2022-12-11T18:45:00.779Z,61.30
2022-12-11T18:47:27.379Z,63.15
2022-12-11T18:49:53.878Z,67.85
2022-12-11T18:52:20.405Z,74.80
2022-12-11T18:54:46.867Z,74.13
2022-12-11T18:57:13.320Z,104.05
2022-12-11T18:59:39.834Z,126.47
2022-12-11T19:02:06.348Z,123.13
2022-12-11T19:04:33.009Z,80.82
2022-12-11T19:07:00.826Z,93.40
2022-12-11T19:09:27.326Z,103.43
2022-12-11T19:11:53.791Z,97.85
2022-12-11T19:14:20.345Z,113.28
2022-12-11T19:16:46.888Z,134.65
2022-12-11T19:19:17.628Z,130.48
2022-12-11T19:21:44.830Z,109.75
2022-12-11T19:24:18.755Z,133.10
2022-12-11T19:26:45.657Z,145.20
2022-12-11T19:29:20.613Z,184.05
2022-12-11T19:31:47.211Z,153.48
2022-12-11T19:34:14.633Z,125.18
2022-12-11T19:36:41.236Z,102.53
2022-12-11T19:39:12.801Z,134.50
2022-12-11T19:41:40.954Z,122.53
2022-12-11T19:44:07.842Z,136.00
2022-12-11T19:46:34.490Z,142.23
2022-12-11T19:49:01.332Z,118.53
2022-12-11T19:51:36.833Z,124.43
2022-12-11T19:54:04.488Z,110.50
2022-12-11T19:56:32.600Z,100.97
2022-12-11T19:59:01.889Z,107.95
2022-12-11T20:01:30.231Z,126.63
2022-12-11T20:04:08.892Z,114.85
2022-12-11T20:06:37.714Z,140.88
2022-12-11T20:09:06.062Z,151.32
2022-12-11T20:11:33.397Z,121.07
2022-12-11T20:13:59.909Z,136.88
2022-12-11T20:16:46.348Z,148.15
2022-12-11T20:19:13.256Z,122.15
2022-12-11T20:21:39.753Z,146.18
2022-12-11T20:24:06.629Z,120.35
2022-12-11T20:26:33.162Z,113.85
2022-12-11T20:28:59.701Z,123.50
2022-12-11T20:31:26.419Z,102.70
2022-12-11T20:33:55.602Z,95.20
2022-12-11T20:36:23.015Z,92.72
2022-12-11T20:38:50.354Z,85.03
2022-12-11T20:41:19.742Z,98.90
2022-12-11T20:43:47.212Z,78.60
2022-12-11T20:46:15.105Z,83.63
2022-12-11T20:48:43.575Z,83.38
2022-12-11T20:51:12.506Z,74.97
2022-12-11T20:53:39.693Z,75.18
2022-12-11T20:56:10.865Z,66.38
2022-12-11T21:01:04.628Z,65.78
2022-12-11T21:03:31.376Z,63.15
2022-12-11T21:05:57.868Z,66.20
2022-12-11T21:08:24.825Z,52.42
2022-12-11T21:10:51.386Z,59.42
2022-12-11T21:13:17.882Z,54.30
2022-12-11T21:15:44.395Z,66.05
2022-12-11T21:18:10.877Z,56.05
2022-12-11T21:20:37.433Z,54.35
2022-12-11T21:23:04.141Z,44.38
2022-12-11T21:25:30.719Z,53.13
2022-12-11T21:27:57.179Z,49.75
2022-12-11T21:30:23.688Z,41.42
2022-12-11T21:32:50.199Z,46.70
2022-12-11T21:35:16.753Z,46.85
2022-12-11T21:37:43.206Z,47.28
2022-12-11T21:40:10.133Z,47.25
2022-12-11T21:42:36.605Z,43.05
2022-12-11T21:47:50.749Z,42.53
2022-12-11T21:50:17.717Z,43.20
2022-12-11T21:52:44.538Z,39.55
2022-12-11T21:55:12.280Z,43.50
2022-12-11T21:57:39.035Z,39.85
2022-12-11T22:00:05.979Z,45.80
2022-12-11T22:02:41.139Z,42.50
2022-12-11T22:05:08.416Z,46.83
2022-12-11T22:07:34.982Z,40.78
2022-12-11T22:10:01.669Z,47.72
2022-12-11T22:12:29.175Z,43.55
2022-12-11T22:14:56.264Z,36.05
2022-12-11T22:17:22.988Z,47.42
2022-12-11T22:19:49.516Z,41.08
2022-12-11T22:22:16.006Z,42.42
2022-12-11T22:24:42.461Z,37.30
2022-12-11T22:27:09.231Z,37.17
2022-12-11T22:29:35.714Z,35.25
2022-12-11T22:32:02.251Z,45.30
2022-12-11T22:34:28.714Z,40.33
2022-12-11T22:36:55.287Z,41.90
2022-12-11T22:39:22.195Z,37.10
2022-12-11T22:41:48.718Z,43.10
2022-12-11T22:44:17.354Z,37.40
2022-12-11T22:46:49.615Z,41.90
2022-12-11T22:49:16.688Z,45.55
2022-12-11T22:51:43.159Z,41.35
2022-12-11T22:54:09.747Z,46.45
2022-12-11T22:56:36.253Z,42.28
2022-12-11T22:59:02.746Z,39.60
2022-12-11T23:01:29.237Z,37.25
2022-12-11T23:03:55.750Z,35.80
2022-12-11T23:06:24.093Z,34.65
2022-12-11T23:08:51.697Z,37.88
2022-12-11T23:11:24.698Z,41.90
2022-12-11T23:13:51.707Z,41.65
2022-12-11T23:16:18.651Z,34.92
2022-12-11T23:18:45.238Z,38.17
2022-12-11T23:21:12.413Z,34.17
2022-12-11T23:23:39.249Z,37.20
2022-12-11T23:26:07.247Z,40.17
2022-12-11T23:28:34.176Z,38.65
2022-12-11T23:31:00.910Z,40.97
2022-12-11T23:33:27.735Z,40.03
2022-12-11T23:35:54.662Z,42.70
2022-12-11T23:38:21.254Z,39.95
2022-12-11T23:40:49.468Z,40.08
2022-12-11T23:43:15.996Z,38.90
2022-12-11T23:45:46.000Z,36.72
2022-12-11T23:48:13.292Z,34.67
2022-12-11T23:50:41.260Z,33.47
2022-12-11T23:53:08.401Z,32.40
2022-12-11T23:55:35.386Z,36.35
2022-12-11T23:58:01.894Z,32.17
